Weather Outlook, 29th March 2020 (6pm)

The Atlantic high pressure system will continue to dominate the weather pattern during the next 24 hours, generating mostly fair, breezy conditions (20km/h- 40km/h) across Saint Vincent and the Grenadines. After which, weak instability will move across the islands, resulting in a decrease in wind speeds (15km/h-25km/h)  and  increasing the chance of a few brief showers around Tuesday.

This instability is likely to linger into Wednesday, but model guidance is indicating a dry and suppressive atmosphere limiting any significant shower activity.

 Moderate sea conditions, 1.5m on the western coasts and 2.0m on the eastern coasts, will be observed during the next 24 hours, becoming generally slight (1.0m on the western coasts -1.5m on the eastern coasts) by Tuesday.

There will be no significant haze intrusion within this forecast period.

Aviation WX

[Source: ADDS]
METAR
TVSA 040000Z 07013KT 9999 BKN018 27/24 Q1014 =
TVSA 040500Z 0406/0506 08013KT 9999 SCT018 TEMPO 0421/0503 5000 SHRA BKN014
TAF
TVSA 040500Z 0406/0506 08013KT 9999 SCT018 TEMPO 0421/0503 5000 SHRA BKN014 =
SR / SS: 09:36 / 22:29 UTC (Sunrise Sunset 2020-06-04)